Accueil
METAR-TAF:

METAR-TAF

Aéroports :

Hagåtña, Guam, États-Unis

Aéroport international Antonio-B.-Won-Pat de Guam

latitude: 13-29N, longitude: 144-48E, altitude: 91 m

Observation

Le bulletin a été fait il y a 30 minutes, à 14:54 UTC
Vent 10 kt de est
Température 28°C
Humidité 94%
Pression 1011 hPa
Visibilité: 16.1 km
Quelques nuages à une hauteur de 2400 ft

METAR: PGUM 191454Z 08010KT 10SM FEW024 28/27 A2984 RMK AO2 RAE00 SLP095 P0000 60004 T02780267 58013 $

Heure: 01:24 (15:24 UTC)

Prévision

Le bulletin a été fait il y a 3 heures et 47 minutes, à 11:37 UTC
Prévision valable du 19 à 12 UTC au 20 à 18 UTC
Vent 10 kt de est/nord-est
Visibilité: 10 km
Quelques nuages à une hauteur de 2200 ft
Nuages épars à une hauteur de 4000 ft
averses à proximité

TAF: PGUM 191137Z 1912/2018 07010KT P6SM VCSH FEW022 SCT040

Observations et prévisions météorologiques de plus de 4000 aéroports (messages METAR et TAF).

Les stations disponibles sont représentées par des disques jaunes et rouges sur la carte.

Passer la souris dessus pour voir le nom de la station.

Cliquer dessus pour voir les observations et prévisions météorologiques.

Pour changer de carte: cliquez sur les boutons verts avec une croix noire pour zoomer, sur le bouton vert avec un tiret pour effectuer un zoom arrière, ou sur les flèches vertes pour les cartes adjacentes.


METAR-TAF: